Lindsay, California
Current Conditions -  °F | °C
As of 8:55 PM on Sunday 21 Dec 2014 (Local Time) from KPTV Reporting Station
Overcast Overcast  
Wind Chill: 55°   Ceiling: 3300
Heat Index: 55°   Visibility: 5mi
Dew Point: 52°   Wind: 5mph
Humidity: 88%   Direction: 180°S
Pressure: 30.27"   Gusts: NA
Location:  36.2°N, 119.08°W
Report Text: KPTV 220455Z AUTO 18004KT 5SM OVC033 13/11 A3027 RMK AO1
Loading
Personal Weather Stations






























Interactive Weather Map New forecast layout! Learn more

10-Day Weather Forecast

Advertisements
Track Severe Weather on mobile